INDIA METEOROLOGICAL DEPARTMENT, R.M.C. NEW DELHI
Dated:26 - 2 - 2017
METARS OF ALTERNATE AIRPORTS
Delhi      
VIDP 261900Z 26004KT 3000 HZ NSC 16/08 Q1013 NOSIG=
Amritsar   
VIAR 261900Z 00000KT 4000 BR NSC 14/10 Q1013 NOSIG=
Lucknow    
VILK 261830Z VRB02KT 2000 HZ NSC 16/07 Q1011=
Jaipur     
VIJP 261900Z 00000KT 4000 HZ NSC 18/00 Q1015 NOSIG=
Ahmedabad  
VAAH 261900Z 00000KT 4000 FU NSC 23/10 Q1012 NOSIG=
Mumbai     
VABB 261900Z 00000KT 3000 FU NSC 28/17 Q1010 NOSIG=